sensor_id;sensor_type;location;lat;lon;timestamp;pressure;altitude;pressure_sealevel;temperature;humidity
39301;BME280;25019;42.626;23.380;2023-04-25T00:01:24;93677.31;;;9.53;100.00
39301;BME280;25019;42.626;23.380;2023-04-25T00:03:49;93697.00;;;9.78;100.00
39301;BME280;25019;42.626;23.380;2023-04-25T00:06:16;93698.09;;;9.82;100.00
39301;BME280;25019;42.626;23.380;2023-04-25T00:08:43;93668.84;;;9.56;100.00
39301;BME280;25019;42.626;23.380;2023-04-25T00:11:08;93599.50;;;9.11;100.00
39301;BME280;25019;42.626;23.380;2023-04-25T00:13:34;93670.72;;;9.61;100.00
39301;BME280;25019;42.626;23.380;2023-04-25T00:16:00;93634.06;;;9.42;100.00
39301;BME280;25019;42.626;23.380;2023-04-25T00:18:25;93650.81;;;9.58;100.00
39301;BME280;25019;42.626;23.380;2023-04-25T00:20:54;93666.50;;;9.70;100.00
39301;BME280;25019;42.626;23.380;2023-04-25T00:23:20;93687.75;;;9.80;100.00
39301;BME280;25019;42.626;23.380;2023-04-25T00:25:50;93668.38;;;9.80;100.00
39301;BME280;25019;42.626;23.380;2023-04-25T00:28:16;93668.38;;;9.80;100.00
39301;BME280;25019;42.626;23.380;2023-04-25T00:30:42;93578.09;;;9.18;100.00
39301;BME280;25019;42.626;23.380;2023-04-25T00:33:08;93645.00;;;9.61;100.00
39301;BME280;25019;42.626;23.380;2023-04-25T00:35:34;93658.28;;;9.66;100.00
39301;BME280;25019;42.626;23.380;2023-04-25T00:38:00;93647.66;;;9.61;100.00
39301;BME280;25019;42.626;23.380;2023-04-25T00:40:26;93539.28;;;8.86;100.00
39301;BME280;25019;42.626;23.380;2023-04-25T00:42:53;93643.38;;;9.55;100.00
39301;BME280;25019;42.626;23.380;2023-04-25T00:45:19;93550.19;;;8.99;100.00
39301;BME280;25019;42.626;23.380;2023-04-25T00:47:46;93628.56;;;9.59;100.00
39301;BME280;25019;42.626;23.380;2023-04-25T00:50:13;93606.78;;;9.41;100.00
39301;BME280;25019;42.626;23.380;2023-04-25T00:52:43;93628.84;;;9.57;100.00
39301;BME280;25019;42.626;23.380;2023-04-25T00:55:11;93620.34;;;9.55;100.00
39301;BME280;25019;42.626;23.380;2023-04-25T00:57:37;93618.22;;;9.63;100.00
39301;BME280;25019;42.626;23.380;2023-04-25T01:00:04;93547.88;;;9.13;100.00
39301;BME280;25019;42.626;23.380;2023-04-25T01:02:34;93625.13;;;9.58;100.00
39301;BME280;25019;42.626;23.380;2023-04-25T01:05:01;93604.44;;;9.55;100.00
39301;BME280;25019;42.626;23.380;2023-04-25T01:07:27;93609.50;;;9.67;100.00
39301;BME280;25019;42.626;23.380;2023-04-25T01:09:53;93613.75;;;9.68;100.00
39301;BME280;25019;42.626;23.380;2023-04-25T01:12:18;93590.66;;;9.53;100.00
39301;BME280;25019;42.626;23.380;2023-04-25T01:14:44;93599.91;;;9.46;100.00
39301;BME280;25019;42.626;23.380;2023-04-25T01:17:11;93606.78;;;9.41;100.00
39301;BME280;25019;42.626;23.380;2023-04-25T01:19:37;93543.31;;;9.09;100.00
39301;BME280;25019;42.626;23.380;2023-04-25T01:22:03;93533.22;;;8.95;100.00
39301;BME280;25019;42.626;23.380;2023-04-25T01:24:32;93584.25;;;9.34;100.00
39301;BME280;25019;42.626;23.380;2023-04-25T01:26:58;93480.41;;;8.63;100.00
39301;BME280;25019;42.626;23.380;2023-04-25T01:29:24;93512.72;;;8.70;100.00
39301;BME280;25019;42.626;23.380;2023-04-25T01:31:51;93578.63;;;9.20;100.00
39301;BME280;25019;42.626;23.380;2023-04-25T01:34:18;93541.97;;;8.91;100.00
39301;BME280;25019;42.626;23.380;2023-04-25T01:36:44;93561.34;;;9.02;100.00
39301;BME280;25019;42.626;23.380;2023-04-25T01:39:09;93611.53;;;9.34;100.00
39301;BME280;25019;42.626;23.380;2023-04-25T01:41:35;93592.97;;;9.34;100.00
39301;BME280;25019;42.626;23.380;2023-04-25T01:44:02;93589.78;;;9.32;100.00
39301;BME280;25019;42.626;23.380;2023-04-25T01:46:27;93537.72;;;8.90;100.00
39301;BME280;25019;42.626;23.380;2023-04-25T01:48:53;93583.34;;;9.12;100.00
39301;BME280;25019;42.626;23.380;2023-04-25T01:51:20;93533.03;;;8.54;100.00
39301;BME280;25019;42.626;23.380;2023-04-25T01:53:46;93610.84;;;9.01;100.00
39301;BME280;25019;42.626;23.380;2023-04-25T01:56:12;93616.09;;;8.96;100.00
39301;BME280;25019;42.626;23.380;2023-04-25T01:58:38;93606.06;;;8.98;100.00
39301;BME280;25019;42.626;23.380;2023-04-25T02:01:12;93501.59;;;8.20;100.00
39301;BME280;25019;42.626;23.380;2023-04-25T02:03:44;93608.44;;;8.94;100.00
39301;BME280;25019;42.626;23.380;2023-04-25T02:06:19;93567.72;;;8.58;100.00
39301;BME280;25019;42.626;23.380;2023-04-25T02:08:46;93556.78;;;8.44;100.00
39301;BME280;25019;42.626;23.380;2023-04-25T02:11:13;93562.34;;;8.47;100.00
39301;BME280;25019;42.626;23.380;2023-04-25T02:13:49;93611.06;;;8.94;100.00
39301;BME280;25019;42.626;23.380;2023-04-25T02:16:32;93612.41;;;8.92;100.00
39301;BME280;25019;42.626;23.380;2023-04-25T02:19:00;93593.34;;;9.00;100.00
39301;BME280;25019;42.626;23.380;2023-04-25T02:21:25;93584.38;;;9.06;100.00
39301;BME280;25019;42.626;23.380;2023-04-25T02:23:52;93574.28;;;8.98;100.00
39301;BME280;25019;42.626;23.380;2023-04-25T02:26:18;93565.25;;;8.94;100.00
39301;BME280;25019;42.626;23.380;2023-04-25T02:28:43;93581.16;;;8.99;100.00
39301;BME280;25019;42.626;23.380;2023-04-25T02:31:09;93521.41;;;8.60;100.00
39301;BME280;25019;42.626;23.380;2023-04-25T02:33:35;93534.13;;;8.63;100.00
39301;BME280;25019;42.626;23.380;2023-04-25T02:36:00;93558.59;;;8.86;100.00
39301;BME280;25019;42.626;23.380;2023-04-25T02:38:26;93571.84;;;8.86;100.00
39301;BME280;25019;42.626;23.380;2023-04-25T02:40:52;93580.09;;;8.90;100.00
39301;BME280;25019;42.626;23.380;2023-04-25T02:43:18;93566.28;;;8.82;100.00
39301;BME280;25019;42.626;23.380;2023-04-25T02:45:43;93580.09;;;8.90;100.00
39301;BME280;25019;42.626;23.380;2023-04-25T02:48:09;93562.28;;;8.80;100.00
39301;BME280;25019;42.626;23.380;2023-04-25T02:50:34;93570.75;;;8.82;100.00
39301;BME280;25019;42.626;23.380;2023-04-25T02:53:00;93581.34;;;8.82;100.00
39301;BME280;25019;42.626;23.380;2023-04-25T02:55:32;93557.22;;;8.73;100.00
39301;BME280;25019;42.626;23.380;2023-04-25T02:58:00;93509.66;;;8.40;100.00
39301;BME280;25019;42.626;23.380;2023-04-25T03:00:43;93546.88;;;8.66;100.00
39301;BME280;25019;42.626;23.380;2023-04-25T03:03:10;93551.34;;;8.66;100.00
39301;BME280;25019;42.626;23.380;2023-04-25T03:05:35;93546.31;;;8.64;100.00
39301;BME280;25019;42.626;23.380;2023-04-25T03:08:01;93557.50;;;8.77;100.00
39301;BME280;25019;42.626;23.380;2023-04-25T03:10:27;93546.13;;;8.76;100.00
39301;BME280;25019;42.626;23.380;2023-04-25T03:12:55;93537.06;;;8.67;100.00
39301;BME280;25019;42.626;23.380;2023-04-25T03:15:21;93524.63;;;8.67;100.00
39301;BME280;25019;42.626;23.380;2023-04-25T03:17:47;93544.00;;;8.78;100.00
39301;BME280;25019;42.626;23.380;2023-04-25T03:20:12;93530.47;;;8.69;100.00
39301;BME280;25019;42.626;23.380;2023-04-25T03:22:38;93492.19;;;8.39;100.00
39301;BME280;25019;42.626;23.380;2023-04-25T03:25:04;93564.41;;;8.83;100.00
39301;BME280;25019;42.626;23.380;2023-04-25T03:27:30;93505.50;;;8.55;100.00
39301;BME280;25019;42.626;23.380;2023-04-25T03:29:56;93551.47;;;8.87;100.00
39301;BME280;25019;42.626;23.380;2023-04-25T03:32:21;93530.75;;;8.73;100.00
39301;BME280;25019;42.626;23.380;2023-04-25T03:34:47;93543.78;;;8.90;100.00
39301;BME280;25019;42.626;23.380;2023-04-25T03:37:13;93543.75;;;8.80;100.00
39301;BME280;25019;42.626;23.380;2023-04-25T03:39:39;93552.72;;;8.79;100.00
39301;BME280;25019;42.626;23.380;2023-04-25T03:42:06;93542.91;;;8.69;100.00
39301;BME280;25019;42.626;23.380;2023-04-25T03:44:32;93550.06;;;8.68;100.00
39301;BME280;25019;42.626;23.380;2023-04-25T03:46:58;93533.88;;;8.65;100.00
39301;BME280;25019;42.626;23.380;2023-04-25T03:49:24;93544.78;;;8.74;100.00
39301;BME280;25019;42.626;23.380;2023-04-25T03:51:56;93526.25;;;8.74;100.00
39301;BME280;25019;42.626;23.380;2023-04-25T03:54:21;93552.34;;;9.03;100.00
39301;BME280;25019;42.626;23.380;2023-04-25T03:57:09;93432.19;;;8.50;100.00
39301;BME280;25019;42.626;23.380;2023-04-25T03:59:37;93481.88;;;9.07;100.00
39301;BME280;25019;42.626;23.380;2023-04-25T04:02:04;93537.91;;;9.67;100.00
39301;BME280;25019;42.626;23.380;2023-04-25T04:04:31;93525.47;;;9.78;100.00
39301;BME280;25019;42.626;23.380;2023-04-25T04:06:59;93478.28;;;9.59;100.00
39301;BME280;25019;42.626;23.380;2023-04-25T04:09:27;93509.03;;;10.02;100.00
39301;BME280;25019;42.626;23.380;2023-04-25T04:11:54;93535.50;;;10.54;100.00
39301;BME280;25019;42.626;23.380;2023-04-25T04:14:20;93480.09;;;10.11;100.00
39301;BME280;25019;42.626;23.380;2023-04-25T04:16:48;93494.66;;;10.18;100.00
39301;BME280;25019;42.626;23.380;2023-04-25T04:19:14;93546.41;;;10.37;100.00
39301;BME280;25019;42.626;23.380;2023-04-25T04:21:44;93476.94;;;9.67;100.00
39301;BME280;25019;42.626;23.380;2023-04-25T04:24:10;93497.34;;;9.72;100.00
39301;BME280;25019;42.626;23.380;2023-04-25T04:26:48;93491.50;;;9.70;100.00
39301;BME280;25019;42.626;23.380;2023-04-25T04:29:35;93513.00;;;9.68;100.00
39301;BME280;25019;42.626;23.380;2023-04-25T04:32:18;93549.88;;;9.96;100.00
39301;BME280;25019;42.626;23.380;2023-04-25T04:34:44;93544.56;;;9.80;100.00
39301;BME280;25019;42.626;23.380;2023-04-25T04:37:13;93470.56;;;9.37;100.00
39301;BME280;25019;42.626;23.380;2023-04-25T04:39:40;93560.22;;;10.02;100.00
39301;BME280;25019;42.626;23.380;2023-04-25T04:42:13;93540.59;;;9.98;100.00
39301;BME280;25019;42.626;23.380;2023-04-25T04:44:59;93558.88;;;10.20;100.00
39301;BME280;25019;42.626;23.380;2023-04-25T04:47:53;93548.00;;;10.07;100.00
39301;BME280;25019;42.626;23.380;2023-04-25T04:50:32;93452.00;;;9.58;100.00
39301;BME280;25019;42.626;23.380;2023-04-25T04:53:15;93499.50;;;9.85;100.00
39301;BME280;25019;42.626;23.380;2023-04-25T04:56:01;93558.63;;;10.22;100.00
39301;BME280;25019;42.626;23.380;2023-04-25T04:58:44;93554.63;;;10.30;100.00
39301;BME280;25019;42.626;23.380;2023-04-25T05:01:40;93557.81;;;10.22;100.00
39301;BME280;25019;42.626;23.380;2023-04-25T05:04:24;93562.34;;;10.11;100.00
39301;BME280;25019;42.626;23.380;2023-04-25T05:07:10;93554.66;;;10.04;100.00
39301;BME280;25019;42.626;23.380;2023-04-25T05:09:49;93572.16;;;10.10;100.00
39301;BME280;25019;42.626;23.380;2023-04-25T05:12:29;93581.44;;;10.18;100.00
39301;BME280;25019;42.626;23.380;2023-04-25T05:15:16;93580.09;;;10.26;100.00
39301;BME280;25019;42.626;23.380;2023-04-25T05:18:00;93579.88;;;10.27;100.00
39301;BME280;25019;42.626;23.380;2023-04-25T05:20:38;93566.31;;;10.18;100.00
39301;BME280;25019;42.626;23.380;2023-04-25T05:23:21;93579.31;;;10.15;100.00
39301;BME280;25019;42.626;23.380;2023-04-25T05:25:54;93591.78;;;10.25;100.00
39301;BME280;25019;42.626;23.380;2023-04-25T05:28:46;93504.25;;;9.73;100.00
39301;BME280;25019;42.626;23.380;2023-04-25T05:31:36;93578.00;;;10.28;100.00
39301;BME280;25019;42.626;23.380;2023-04-25T05:34:07;93582.00;;;10.30;100.00
39301;BME280;25019;42.626;23.380;2023-04-25T05:37:03;93587.28;;;10.35;100.00
39301;BME280;25019;42.626;23.380;2023-04-25T05:39:30;93569.78;;;10.40;100.00
39301;BME280;25019;42.626;23.380;2023-04-25T05:42:15;93578.00;;;10.48;100.00
39301;BME280;25019;42.626;23.380;2023-04-25T05:45:11;93573.78;;;10.42;100.00
39301;BME280;25019;42.626;23.380;2023-04-25T05:47:55;93575.91;;;10.45;100.00
39301;BME280;25019;42.626;23.380;2023-04-25T05:50:44;93533.69;;;10.23;100.00
39301;BME280;25019;42.626;23.380;2023-04-25T05:53:22;93591.50;;;10.73;100.00
39301;BME280;25019;42.626;23.380;2023-04-25T05:55:55;93597.59;;;10.84;100.00
39301;BME280;25019;42.626;23.380;2023-04-25T05:58:26;93580.88;;;10.83;100.00
39301;BME280;25019;42.626;23.380;2023-04-25T06:00:53;93528.38;;;10.54;100.00
39301;BME280;25019;42.626;23.380;2023-04-25T06:03:19;93559.88;;;10.87;100.00
39301;BME280;25019;42.626;23.380;2023-04-25T06:05:45;93578.69;;;11.01;100.00
39301;BME280;25019;42.626;23.380;2023-04-25T06:08:11;93572.31;;;11.02;100.00
39301;BME280;25019;42.626;23.380;2023-04-25T06:10:37;93565.94;;;10.98;100.00
39301;BME280;25019;42.626;23.380;2023-04-25T06:13:04;93597.19;;;11.32;100.00
39301;BME280;25019;42.626;23.380;2023-04-25T06:15:31;93513.88;;;10.97;100.00
39301;BME280;25019;42.626;23.380;2023-04-25T06:17:59;93482.59;;;10.83;100.00
39301;BME280;25019;42.626;23.380;2023-04-25T06:20:25;93534.25;;;11.22;100.00
39301;BME280;25019;42.626;23.380;2023-04-25T06:22:52;93579.31;;;11.43;100.00
39301;BME280;25019;42.626;23.380;2023-04-25T06:25:18;93570.09;;;11.30;100.00
39301;BME280;25019;42.626;23.380;2023-04-25T06:27:44;93555.22;;;11.18;100.00
39301;BME280;25019;42.626;23.380;2023-04-25T06:30:12;93592.41;;;11.29;100.00
39301;BME280;25019;42.626;23.380;2023-04-25T06:32:39;93543.63;;;10.99;100.00
39301;BME280;25019;42.626;23.380;2023-04-25T06:35:05;93496.97;;;10.67;100.00
39301;BME280;25019;42.626;23.380;2023-04-25T06:37:34;93539.91;;;11.00;100.00
39301;BME280;25019;42.626;23.380;2023-04-25T06:40:01;93476.53;;;10.67;100.00
39301;BME280;25019;42.626;23.380;2023-04-25T06:42:28;93589.94;;;11.48;100.00
39301;BME280;25019;42.626;23.380;2023-04-25T06:44:57;93593.56;;;11.62;100.00
39301;BME280;25019;42.626;23.380;2023-04-25T06:47:23;93473.47;;;11.00;100.00
39301;BME280;25019;42.626;23.380;2023-04-25T06:49:49;93543.53;;;11.69;100.00
39301;BME280;25019;42.626;23.380;2023-04-25T06:52:15;93597.84;;;12.08;100.00
39301;BME280;25019;42.626;23.380;2023-04-25T06:54:44;93549.56;;;11.86;100.00
39301;BME280;25019;42.626;23.380;2023-04-25T06:57:29;93599.91;;;12.22;100.00
39301;BME280;25019;42.626;23.380;2023-04-25T07:00:07;93596.59;;;12.35;100.00
39301;BME280;25019;42.626;23.380;2023-04-25T07:02:38;93612.91;;;12.58;100.00
39301;BME280;25019;42.626;23.380;2023-04-25T07:05:06;93593.09;;;12.69;100.00
39301;BME280;25019;42.626;23.380;2023-04-25T07:07:32;93550.94;;;12.47;100.00
39301;BME280;25019;42.626;23.380;2023-04-25T07:10:01;93607.94;;;13.05;100.00
39301;BME280;25019;42.626;23.380;2023-04-25T07:12:27;93561.03;;;13.04;100.00
39301;BME280;25019;42.626;23.380;2023-04-25T07:14:53;93600.75;;;13.54;100.00
39301;BME280;25019;42.626;23.380;2023-04-25T07:17:19;93586.06;;;13.32;100.00
39301;BME280;25019;42.626;23.380;2023-04-25T07:19:45;93603.28;;;13.40;100.00
39301;BME280;25019;42.626;23.380;2023-04-25T07:22:16;93560.69;;;13.11;100.00
39301;BME280;25019;42.626;23.380;2023-04-25T07:24:42;93569.81;;;13.29;100.00
39301;BME280;25019;42.626;23.380;2023-04-25T07:27:09;93588.28;;;13.50;100.00
39301;BME280;25019;42.626;23.380;2023-04-25T07:30:01;93541.00;;;13.31;100.00
39301;BME280;25019;42.626;23.380;2023-04-25T07:32:27;93579.94;;;13.75;100.00
39301;BME280;25019;42.626;23.380;2023-04-25T07:34:53;93579.88;;;13.61;100.00
39301;BME280;25019;42.626;23.380;2023-04-25T07:37:19;93455.91;;;12.91;100.00
39301;BME280;25019;42.626;23.380;2023-04-25T07:39:59;93578.56;;;13.78;100.00
39301;BME280;25019;42.626;23.380;2023-04-25T07:42:25;93591.84;;;14.02;100.00
39301;BME280;25019;42.626;23.380;2023-04-25T07:44:51;93524.03;;;13.84;100.00
39301;BME280;25019;42.626;23.380;2023-04-25T07:47:17;93464.63;;;13.59;100.00
39301;BME280;25019;42.626;23.380;2023-04-25T07:49:44;93582.50;;;14.38;100.00
39301;BME280;25019;42.626;23.380;2023-04-25T07:52:11;93573.00;;;14.46;100.00
39301;BME280;25019;42.626;23.380;2023-04-25T07:54:41;93573.91;;;14.41;100.00
39301;BME280;25019;42.626;23.380;2023-04-25T07:57:14;93516.53;;;14.05;100.00
39301;BME280;25019;42.626;23.380;2023-04-25T07:59:40;93576.69;;;14.50;100.00
39301;BME280;25019;42.626;23.380;2023-04-25T08:02:09;93580.06;;;14.56;100.00
39301;BME280;25019;42.626;23.380;2023-04-25T08:04:35;93545.28;;;14.42;100.00
39301;BME280;25019;42.626;23.380;2023-04-25T08:07:05;93492.59;;;14.14;100.00
39301;BME280;25019;42.626;23.380;2023-04-25T08:09:40;93572.75;;;14.61;100.00
39301;BME280;25019;42.626;23.380;2023-04-25T08:12:10;93552.69;;;14.31;100.00
39301;BME280;25019;42.626;23.380;2023-04-25T08:14:36;93573.91;;;14.41;100.00
39301;BME280;25019;42.626;23.380;2023-04-25T08:17:03;93547.25;;;14.36;100.00
39301;BME280;25019;42.626;23.380;2023-04-25T08:19:30;93573.91;;;14.74;100.00
39301;BME280;25019;42.626;23.380;2023-04-25T08:21:57;93529.41;;;14.64;100.00
39301;BME280;25019;42.626;23.380;2023-04-25T08:24:29;93516.13;;;14.45;100.00
39301;BME280;25019;42.626;23.380;2023-04-25T08:26:55;93507.38;;;14.39;100.00
39301;BME280;25019;42.626;23.380;2023-04-25T08:29:22;93487.09;;;14.38;100.00
39301;BME280;25019;42.626;23.380;2023-04-25T08:31:50;93555.91;;;14.94;100.00
39301;BME280;25019;42.626;23.380;2023-04-25T08:34:18;93558.00;;;14.97;100.00
39301;BME280;25019;42.626;23.380;2023-04-25T08:36:47;93523.50;;;14.81;100.00
39301;BME280;25019;42.626;23.380;2023-04-25T08:39:29;93548.78;;;15.17;100.00
39301;BME280;25019;42.626;23.380;2023-04-25T08:42:21;93544.94;;;15.74;100.00
39301;BME280;25019;42.626;23.380;2023-04-25T08:44:49;93546.00;;;16.01;100.00
39301;BME280;25019;42.626;23.380;2023-04-25T08:47:15;93530.16;;;16.13;100.00
39301;BME280;25019;42.626;23.380;2023-04-25T08:49:46;93539.81;;;16.46;100.00
39301;BME280;25019;42.626;23.380;2023-04-25T08:52:22;93497.22;;;16.36;100.00
39301;BME280;25019;42.626;23.380;2023-04-25T08:54:48;93525.25;;;16.61;100.00
39301;BME280;25019;42.626;23.380;2023-04-25T08:57:17;93545.94;;;16.69;100.00
39301;BME280;25019;42.626;23.380;2023-04-25T08:59:42;93547.19;;;16.40;97.79
39301;BME280;25019;42.626;23.380;2023-04-25T09:02:12;93559.44;;;16.10;95.34
39301;BME280;25019;42.626;23.380;2023-04-25T09:04:46;93498.34;;;15.75;92.39
39301;BME280;25019;42.626;23.380;2023-04-25T09:07:12;93482.47;;;15.79;91.48
39301;BME280;25019;42.626;23.380;2023-04-25T09:09:38;93518.34;;;15.92;91.73
39301;BME280;25019;42.626;23.380;2023-04-25T09:12:05;93429.75;;;15.42;86.34
39301;BME280;25019;42.626;23.380;2023-04-25T09:14:31;93535.00;;;16.34;86.61
39301;BME280;25019;42.626;23.380;2023-04-25T09:17:02;93510.69;;;16.22;91.98
39301;BME280;25019;42.626;23.380;2023-04-25T09:20:11;93537.41;;;16.13;97.69
39301;BME280;25019;42.626;23.380;2023-04-25T09:22:37;93485.69;;;15.67;100.00
39301;BME280;25019;42.626;23.380;2023-04-25T09:25:12;93529.94;;;16.01;100.00
39301;BME280;25019;42.626;23.380;2023-04-25T09:27:51;93540.75;;;15.96;96.64
39301;BME280;25019;42.626;23.380;2023-04-25T09:30:34;93530.03;;;15.96;97.80
39301;BME280;25019;42.626;23.380;2023-04-25T09:33:08;93463.97;;;15.32;95.89
39301;BME280;25019;42.626;23.380;2023-04-25T09:35:43;93491.97;;;15.48;96.01
39301;BME280;25019;42.626;23.380;2023-04-25T09:38:18;93475.09;;;15.25;97.08
39301;BME280;25019;42.626;23.380;2023-04-25T09:40:59;93472.41;;;15.25;100.00
39301;BME280;25019;42.626;23.380;2023-04-25T09:43:36;93503.00;;;15.19;100.00
39301;BME280;25019;42.626;23.380;2023-04-25T09:46:13;93443.88;;;14.36;100.00
39301;BME280;25019;42.626;23.380;2023-04-25T09:48:48;93542.34;;;14.76;100.00
39301;BME280;25019;42.626;23.380;2023-04-25T09:51:16;93505.59;;;14.35;100.00
39301;BME280;25019;42.626;23.380;2023-04-25T09:53:46;93525.72;;;14.46;100.00
39301;BME280;25019;42.626;23.380;2023-04-25T09:56:36;93534.25;;;14.48;100.00
39301;BME280;25019;42.626;23.380;2023-04-25T09:59:05;93531.34;;;14.45;100.00
39301;BME280;25019;42.626;23.380;2023-04-25T10:01:33;93533.78;;;14.60;100.00
39301;BME280;25019;42.626;23.380;2023-04-25T10:04:11;93466.81;;;14.37;100.00
39301;BME280;25019;42.626;23.380;2023-04-25T10:07:08;93442.00;;;14.37;100.00
39301;BME280;25019;42.626;23.380;2023-04-25T10:09:37;93508.47;;;15.00;100.00
39301;BME280;25019;42.626;23.380;2023-04-25T10:12:05;93520.75;;;15.15;100.00
39301;BME280;25019;42.626;23.380;2023-04-25T10:14:31;93518.56;;;15.17;100.00
39301;BME280;25019;42.626;23.380;2023-04-25T10:17:00;93379.91;;;14.45;100.00
39301;BME280;25019;42.626;23.380;2023-04-25T10:19:33;93507.97;;;15.62;100.00
39301;BME280;25019;42.626;23.380;2023-04-25T10:22:06;93380.41;;;15.12;100.00
39301;BME280;25019;42.626;23.380;2023-04-25T10:24:32;93526.63;;;16.27;98.52
39301;BME280;25019;42.626;23.380;2023-04-25T10:26:58;93529.56;;;16.16;95.84
39301;BME280;25019;42.626;23.380;2023-04-25T10:29:25;93518.47;;;15.72;87.04
39301;BME280;25019;42.626;23.380;2023-04-25T10:31:51;93499.53;;;15.32;83.78
39301;BME280;25019;42.626;23.380;2023-04-25T10:34:18;93507.09;;;14.88;74.24
39301;BME280;25019;42.626;23.380;2023-04-25T10:36:50;93505.59;;;14.96;79.90
39301;BME280;25019;42.626;23.380;2023-04-25T10:39:29;93503.13;;;15.13;77.46
39301;BME280;25019;42.626;23.380;2023-04-25T10:41:58;93515.47;;;15.23;73.29
39301;BME280;25019;42.626;23.380;2023-04-25T10:44:31;93487.97;;;15.09;73.12
39301;BME280;25019;42.626;23.380;2023-04-25T10:47:01;93504.91;;;15.32;70.59
39301;BME280;25019;42.626;23.380;2023-04-25T10:49:30;93498.78;;;15.54;72.92
39301;BME280;25019;42.626;23.380;2023-04-25T10:54:54;93509.38;;;15.60;71.70
39301;BME280;25019;42.626;23.380;2023-04-25T10:57:42;93505.44;;;15.57;74.07
39301;BME280;25019;42.626;23.380;2023-04-25T11:00:19;93525.81;;;15.02;95.29
39301;BME280;25019;42.626;23.380;2023-04-25T11:02:48;93465.66;;;14.44;97.01
39301;BME280;25019;42.626;23.380;2023-04-25T11:05:34;93504.88;;;14.62;94.21
39301;BME280;25019;42.626;23.380;2023-04-25T11:08:00;93541.34;;;14.72;97.54
39301;BME280;25019;42.626;23.380;2023-04-25T11:10:27;93487.25;;;14.47;97.90
39301;BME280;25019;42.626;23.380;2023-04-25T11:12:53;93524.09;;;15.06;97.62
39301;BME280;25019;42.626;23.380;2023-04-25T11:15:19;93442.63;;;14.62;91.81
39301;BME280;25019;42.626;23.380;2023-04-25T11:17:51;93506.00;;;15.03;86.93
39301;BME280;25019;42.626;23.380;2023-04-25T11:20:16;93447.78;;;14.86;84.72
39301;BME280;25019;42.626;23.380;2023-04-25T11:22:44;93504.41;;;15.30;83.64
39301;BME280;25019;42.626;23.380;2023-04-25T11:25:11;93504.75;;;15.37;79.62
39301;BME280;25019;42.626;23.380;2023-04-25T11:27:52;93437.16;;;15.09;78.13
39301;BME280;25019;42.626;23.380;2023-04-25T11:30:18;93499.78;;;15.58;77.48
39301;BME280;25019;42.626;23.380;2023-04-25T11:32:45;93436.63;;;15.35;78.85
39301;BME280;25019;42.626;23.380;2023-04-25T11:35:11;93501.19;;;15.93;79.25
39301;BME280;25019;42.626;23.380;2023-04-25T11:37:39;93464.25;;;15.44;85.99
39301;BME280;25019;42.626;23.380;2023-04-25T11:40:06;93512.91;;;15.46;90.30
39301;BME280;25019;42.626;23.380;2023-04-25T11:42:49;93515.88;;;15.31;91.65
39301;BME280;25019;42.626;23.380;2023-04-25T11:45:15;93517.50;;;15.04;91.80
39301;BME280;25019;42.626;23.380;2023-04-25T11:47:40;93494.50;;;14.75;91.33
39301;BME280;25019;42.626;23.380;2023-04-25T11:50:07;93500.13;;;14.59;92.50
39301;BME280;25019;42.626;23.380;2023-04-25T11:52:40;93448.66;;;13.92;96.62
39301;BME280;25019;42.626;23.380;2023-04-25T11:55:21;93518.25;;;13.96;100.00
39301;BME280;25019;42.626;23.380;2023-04-25T11:57:53;93539.41;;;13.54;100.00
39301;BME280;25019;42.626;23.380;2023-04-25T12:00:24;93546.69;;;13.00;100.00
39301;BME280;25019;42.626;23.380;2023-04-25T12:02:54;93483.28;;;11.49;100.00
39301;BME280;25019;42.626;23.380;2023-04-25T12:05:21;93558.47;;;11.60;100.00
39301;BME280;25019;42.626;23.380;2023-04-25T12:07:48;93479.56;;;11.05;100.00
39301;BME280;25019;42.626;23.380;2023-04-25T12:10:15;93527.63;;;11.64;100.00
39301;BME280;25019;42.626;23.380;2023-04-25T12:12:42;93525.38;;;11.82;100.00
39301;BME280;25019;42.626;23.380;2023-04-25T12:15:23;93515.25;;;11.84;100.00
39301;BME280;25019;42.626;23.380;2023-04-25T12:17:50;93459.94;;;11.81;100.00
39301;BME280;25019;42.626;23.380;2023-04-25T12:20:20;93448.03;;;12.08;100.00
39301;BME280;25019;42.626;23.380;2023-04-25T12:22:49;93444.31;;;12.33;100.00
39301;BME280;25019;42.626;23.380;2023-04-25T12:28:23;93491.84;;;13.37;100.00
39301;BME280;25019;42.626;23.380;2023-04-25T12:30:56;93485.94;;;13.40;100.00
39301;BME280;25019;42.626;23.380;2023-04-25T12:33:28;93394.56;;;12.96;100.00
39301;BME280;25019;42.626;23.380;2023-04-25T12:35:55;93480.66;;;13.59;100.00
39301;BME280;25019;42.626;23.380;2023-04-25T12:38:31;93403.47;;;13.25;100.00
39301;BME280;25019;42.626;23.380;2023-04-25T12:40:58;93484.91;;;13.60;100.00
39301;BME280;25019;42.626;23.380;2023-04-25T12:43:23;93430.50;;;13.18;100.00
39301;BME280;25019;42.626;23.380;2023-04-25T12:45:56;93506.50;;;13.78;100.00
39301;BME280;25019;42.626;23.380;2023-04-25T12:48:22;93485.03;;;13.69;98.33
39301;BME280;25019;42.626;23.380;2023-04-25T12:50:49;93533.34;;;13.87;95.27
39301;BME280;25019;42.626;23.380;2023-04-25T12:53:20;93416.38;;;12.79;96.08
39301;BME280;25019;42.626;23.380;2023-04-25T12:55:46;93538.91;;;13.28;97.70
39301;BME280;25019;42.626;23.380;2023-04-25T12:58:13;93542.72;;;13.22;100.00
39301;BME280;25019;42.626;23.380;2023-04-25T13:00:39;93543.03;;;13.39;100.00
39301;BME280;25019;42.626;23.380;2023-04-25T13:03:05;93527.72;;;13.07;100.00
39301;BME280;25019;42.626;23.380;2023-04-25T13:05:31;93493.69;;;12.98;100.00
39301;BME280;25019;42.626;23.380;2023-04-25T13:07:56;93553.66;;;13.44;100.00